Time;durP1;ratioP1;P1;durP2;ratioP2;P2;SDS_P1;SDS_P2;PMS_P1;PMS_P2;Temp;Humidity;BMP_temperature;BMP_pressure;BME280_temperature;BME280_humidity;BME280_pressure;Samples;Min_cycle;Max_cycle;Signal;HPM_P1;HPM_P2
2021/11/15 00:01:15;;;;;;;30.63;19.15;;;;;;;8.13;89.94;101230.03;5015522;28;20392;-52
2021/11/15 00:03:44;;;;;;;27.30;19.05;;;;;;;8.22;89.62;101240.34;5014513;28;21010;-53
2021/11/15 00:06:11;;;;;;;27.48;18.98;;;;;;;8.18;90.19;101243.13;5015004;28;20056;-55
2021/11/15 00:08:37;;;;;;;28.55;19.33;;;;;;;8.16;90.37;101240.53;5019666;28;20437;-51
2021/11/15 00:11:04;;;;;;;28.85;20.15;;;;;;;8.19;90.23;101243.06;5014665;28;20048;-55
2021/11/15 00:13:30;;;;;;;27.27;19.10;;;;;;;8.13;90.52;101235.31;5011021;28;20055;-53
2021/11/15 00:15:57;;;;;;;30.13;21.00;;;;;;;8.21;90.30;101235.13;5017387;28;20071;-54
2021/11/15 00:18:24;;;;;;;29.42;20.20;;;;;;;8.21;90.32;101237.75;5031563;28;20144;-53
2021/11/15 00:20:51;;;;;;;29.40;19.00;;;;;;;8.16;90.95;101223.81;5020068;28;20049;-53
2021/11/15 00:23:17;;;;;;;27.05;19.95;;;;;;;8.16;90.67;101229.97;5014678;28;20506;-53
2021/11/15 00:25:44;;;;;;;26.17;19.88;;;;;;;8.15;90.77;101236.16;5015974;28;20041;-53
2021/11/15 00:28:10;;;;;;;29.52;19.52;;;;;;;8.15;90.80;101233.50;5014117;28;20049;-53
2021/11/15 00:30:37;;;;;;;27.83;19.75;;;;;;;8.18;90.82;101238.72;5019445;28;20060;-52
2021/11/15 00:33:03;;;;;;;30.45;20.50;;;;;;;8.10;90.82;101214.28;5014069;28;20044;-52
2021/11/15 00:35:30;;;;;;;27.63;19.33;;;;;;;8.18;90.69;101227.31;5015103;28;20045;-52
2021/11/15 00:37:57;;;;;;;28.60;19.75;;;;;;;8.23;90.92;101231.53;5016878;28;20064;-53
2021/11/15 00:40:23;;;;;;;27.60;19.27;;;;;;;8.30;90.43;101214.66;5016289;28;20044;-54
2021/11/15 00:42:50;;;;;;;28.15;19.42;;;;;;;8.29;90.12;101219.97;5014207;28;20053;-51
2021/11/15 00:45:16;;;;;;;28.13;19.30;;;;;;;8.28;90.33;101215.59;5015706;28;20053;-54
2021/11/15 00:47:44;;;;;;;27.73;19.88;;;;;;;8.29;90.12;101215.56;5016134;28;20045;-54
2021/11/15 00:50:15;;;;;;;27.35;19.10;;;;;;;8.25;90.29;101224.47;5016508;28;20062;-53
2021/11/15 00:52:41;;;;;;;30.60;19.80;;;;;;;8.24;89.85;101221.84;5013455;28;20055;-53
2021/11/15 00:55:08;;;;;;;27.60;19.48;;;;;;;8.27;90.27;101220.00;5015284;28;20048;-52
2021/11/15 00:57:35;;;;;;;26.38;18.30;;;;;;;8.30;90.10;101227.88;5014077;28;20523;-53
2021/11/15 01:00:09;;;;;;;26.48;18.45;;;;;;;8.29;90.08;101218.22;5016784;28;20171;-54
2021/11/15 01:02:35;;;;;;;27.65;18.27;;;;;;;8.22;89.83;101218.38;5015806;28;20056;-56
2021/11/15 01:05:03;;;;;;;28.77;19.55;;;;;;;8.21;90.33;101221.91;5017557;28;20054;-54
2021/11/15 01:07:30;;;;;;;29.17;19.88;;;;;;;8.24;90.72;101228.00;5016345;28;20063;-53
2021/11/15 01:09:56;;;;;;;27.90;18.15;;;;;;;8.24;90.30;101227.13;5015195;28;20061;-54
2021/11/15 01:12:23;;;;;;;31.60;19.90;;;;;;;8.26;90.22;101226.19;5014295;28;20423;-54
2021/11/15 01:14:50;;;;;;;28.17;19.05;;;;;;;8.23;90.26;101225.41;5014547;28;20051;-54
2021/11/15 01:17:17;;;;;;;31.08;19.60;;;;;;;8.15;90.86;101230.88;5017188;28;20491;-53
2021/11/15 01:19:43;;;;;;;29.85;18.92;;;;;;;8.18;91.27;101222.03;5021005;28;20054;-52
2021/11/15 01:22:11;;;;;;;30.38;18.77;;;;;;;8.20;90.83;101233.38;5019142;28;20188;-53
2021/11/15 01:24:37;;;;;;;30.85;19.75;;;;;;;8.23;90.60;101225.41;5018876;28;20050;-54
2021/11/15 01:27:04;;;;;;;29.70;19.33;;;;;;;8.24;90.80;101224.50;5017639;28;20414;-52
2021/11/15 01:29:30;;;;;;;26.95;18.60;;;;;;;8.19;90.97;101229.00;5021979;28;20049;-53
2021/11/15 01:31:59;;;;;;;30.17;18.92;;;;;;;8.16;91.46;101231.75;5020512;28;20037;-54
2021/11/15 01:34:27;;;;;;;28.02;18.38;;;;;;;8.15;91.32;101222.97;5017085;28;20049;-53
2021/11/15 01:36:53;;;;;;;27.83;18.67;;;;;;;8.16;91.42;101221.19;5017958;28;20511;-53
2021/11/15 01:39:20;;;;;;;31.33;19.17;;;;;;;8.12;91.49;101227.44;5017427;28;20048;-52
2021/11/15 01:41:46;;;;;;;30.38;19.15;;;;;;;8.08;91.63;101227.50;5020228;28;20063;-52
2021/11/15 01:44:13;;;;;;;32.80;19.60;;;;;;;8.10;91.32;101225.69;5014303;28;20053;-54
2021/11/15 01:46:40;;;;;;;27.63;18.58;;;;;;;8.12;91.39;101222.16;5020820;28;20053;-52
2021/11/15 01:49:06;;;;;;;29.67;18.23;;;;;;;8.08;92.13;101231.91;5017065;28;20168;-55
2021/11/15 01:51:33;;;;;;;31.08;19.88;;;;;;;8.05;91.88;101232.84;5019727;28;20080;-53
2021/11/15 01:54:00;;;;;;;28.88;18.80;;;;;;;8.08;92.31;101226.63;5012145;28;20064;-53
2021/11/15 01:56:27;;;;;;;31.75;18.73;;;;;;;8.08;92.40;101232.78;5019855;28;20507;-53
2021/11/15 01:58:53;;;;;;;29.25;19.00;;;;;;;8.06;92.52;101218.75;5019141;28;20112;-53
2021/11/15 02:01:20;;;;;;;30.08;18.77;;;;;;;8.06;92.17;101217.88;5021769;28;20063;-54
2021/11/15 02:03:47;;;;;;;30.67;19.38;;;;;;;8.05;92.32;101224.94;5011290;28;20049;-54
2021/11/15 02:06:13;;;;;;;28.90;17.90;;;;;;;8.08;92.25;101224.00;5009023;28;20057;-54
2021/11/15 02:08:40;;;;;;;30.90;19.73;;;;;;;8.07;92.00;101220.47;5018541;28;20057;-54
2021/11/15 02:11:07;;;;;;;31.52;19.70;;;;;;;8.03;92.55;101223.22;5015499;28;20060;-53
2021/11/15 02:13:34;;;;;;;29.80;18.88;;;;;;;8.03;92.65;101213.53;5014885;28;20056;-53
2021/11/15 02:16:00;;;;;;;27.83;18.70;;;;;;;8.14;92.18;101220.34;5018582;28;20501;-54
2021/11/15 02:18:27;;;;;;;30.00;19.17;;;;;;;8.12;92.10;101220.38;5017688;28;20044;-53
2021/11/15 02:20:59;;;;;;;28.23;18.67;;;;;;;8.06;92.26;101221.38;5017389;28;20060;-53
2021/11/15 02:23:29;;;;;;;28.70;18.92;;;;;;;8.12;92.17;101217.75;5022598;28;20054;-53
2021/11/15 02:26:05;;;;;;;28.33;18.70;;;;;;;8.10;92.22;101220.41;5016909;28;20048;-52
2021/11/15 02:28:36;;;;;;;29.13;18.20;;;;;;;8.17;91.94;101213.25;5031585;28;20155;-52
2021/11/15 02:31:04;;;;;;;28.38;17.92;;;;;;;8.22;91.55;101216.63;5038230;28;20495;-54
2021/11/15 02:33:31;;;;;;;30.30;18.65;;;;;;;8.20;91.10;101205.22;5035040;28;20047;-51
2021/11/15 02:35:59;;;;;;;26.35;17.40;;;;;;;8.19;91.21;101208.75;5035133;28;20053;-55
2021/11/15 02:38:26;;;;;;;27.95;17.73;;;;;;;8.16;91.36;101205.34;5034821;28;20052;-54
2021/11/15 02:40:52;;;;;;;27.40;18.35;;;;;;;8.16;91.46;101208.88;5036829;28;20506;-51
2021/11/15 02:43:19;;;;;;;28.48;17.80;;;;;;;8.17;91.44;101213.25;5028531;28;20050;-51
2021/11/15 02:45:46;;;;;;;29.83;17.63;;;;;;;8.10;91.72;101187.91;5038997;28;20049;-52
2021/11/15 02:48:13;;;;;;;27.20;18.17;;;;;;;8.20;91.11;101196.44;5031591;28;20052;-52
2021/11/15 02:50:40;;;;;;;30.02;18.40;;;;;;;8.12;91.13;101177.31;5040902;28;20041;-52
2021/11/15 02:53:08;;;;;;;28.55;18.13;;;;;;;8.22;91.20;101202.56;5032326;28;20198;-51
2021/11/15 02:55:36;;;;;;;26.63;17.42;;;;;;;8.21;91.08;101201.69;5032908;28;20037;-53
2021/11/15 02:58:05;;;;;;;28.52;17.73;;;;;;;8.22;91.10;101199.91;5040060;28;20090;-53
2021/11/15 03:00:42;;;;;;;26.35;17.05;;;;;;;8.19;91.38;101207.91;5037683;28;20045;-52
2021/11/15 03:03:10;;;;;;;27.30;17.75;;;;;;;8.20;91.07;101209.63;5029278;28;20052;-54
2021/11/15 03:05:39;;;;;;;30.05;17.85;;;;;;;8.19;91.34;101197.34;5038015;28;20410;-52
2021/11/15 03:08:08;;;;;;;30.92;18.08;;;;;;;8.20;91.28;101196.44;5032782;28;20048;-53
2021/11/15 03:10:37;;;;;;;29.10;18.80;;;;;;;8.19;91.14;101192.06;5036686;28;20044;-53
2021/11/15 03:13:06;;;;;;;28.45;18.00;;;;;;;8.17;91.75;101193.91;5029794;28;21234;-54
2021/11/15 03:15:37;;;;;;;28.40;17.75;;;;;;;8.19;91.64;101186.78;5031216;28;20073;-53
2021/11/15 03:18:06;;;;;;;27.20;17.15;;;;;;;8.22;90.85;101179.69;5033915;28;20045;-54
2021/11/15 03:20:39;;;;;;;27.38;17.48;;;;;;;8.24;91.05;101179.63;5035903;28;20043;-52
2021/11/15 03:23:09;;;;;;;31.70;18.85;;;;;;;8.21;91.43;101182.34;5017101;28;20044;-51
2021/11/15 03:25:35;;;;;;;30.40;19.10;;;;;;;8.19;91.18;101181.50;5035504;28;20068;-52
2021/11/15 03:28:03;;;;;;;29.00;18.33;;;;;;;8.12;91.42;101177.31;5033669;28;20060;-53
2021/11/15 03:30:30;;;;;;;29.25;18.20;;;;;;;8.16;91.21;101171.06;5030174;28;20049;-54
2021/11/15 03:32:57;;;;;;;29.48;18.52;;;;;;;8.23;91.23;101180.53;5014836;28;20439;-53
2021/11/15 03:35:24;;;;;;;31.05;18.73;;;;;;;8.22;91.28;101178.81;5014003;28;20049;-52
2021/11/15 03:37:51;;;;;;;30.15;18.42;;;;;;;8.21;91.77;101166.50;5015593;28;20045;-52
2021/11/15 03:40:23;;;;;;;31.75;19.25;;;;;;;8.19;91.42;101170.97;5000170;28;20430;-53
2021/11/15 03:42:56;;;;;;;30.08;18.83;;;;;;;8.21;91.40;101163.88;5023876;28;20057;-51
2021/11/15 03:45:23;;;;;;;31.50;18.05;;;;;;;8.23;91.33;101164.72;5014727;28;20053;-55
2021/11/15 03:47:50;;;;;;;31.85;18.95;;;;;;;8.16;91.42;101156.09;5017228;28;20060;-52
2021/11/15 03:50:17;;;;;;;32.85;18.77;;;;;;;8.11;91.63;101157.97;5004644;28;20049;-52
2021/11/15 03:52:44;;;;;;;31.58;19.05;;;;;;;8.15;92.08;101164.91;5014446;28;20049;-53
2021/11/15 03:55:14;;;;;;;30.52;19.90;;;;;;;8.13;91.91;101163.22;5017401;28;20053;-54
2021/11/15 03:57:41;;;;;;;31.63;19.67;;;;;;;8.19;91.91;101165.69;5014830;28;20054;-54
2021/11/15 04:00:10;;;;;;;29.80;19.02;;;;;;;8.16;91.74;101164.00;5017052;28;20968;-53
2021/11/15 04:02:38;;;;;;;31.90;19.30;;;;;;;8.15;91.91;101158.78;5018811;28;20037;-52
2021/11/15 04:05:08;;;;;;;33.50;19.40;;;;;;;8.15;91.74;101156.13;5012949;28;20928;-53
2021/11/15 04:07:39;;;;;;;33.72;20.33;;;;;;;8.17;91.96;101155.19;5015083;28;20057;-52
2021/11/15 04:10:10;;;;;;;;;;;;;;;8.15;91.76;101162.28;5021260;28;20041;-52
2021/11/15 04:12:39;;;;;;;30.60;18.73;;;;;;;8.14;92.45;101162.31;5014664;28;19929;-53
2021/11/15 04:15:07;;;;;;;34.20;19.67;;;;;;;8.09;92.54;101158.00;5012718;28;20049;-51
2021/11/15 04:17:35;;;;;;;35.53;19.70;;;;;;;8.08;92.48;101158.03;5014937;28;20053;-52
2021/11/15 04:20:03;;;;;;;31.42;18.52;;;;;;;8.05;92.86;101166.91;5015181;28;20065;-52
2021/11/15 04:22:30;;;;;;;30.42;19.23;;;;;;;8.05;92.87;101164.25;5021225;28;20060;-54
2021/11/15 04:24:56;;;;;;;33.40;18.92;;;;;;;8.02;93.16;101168.75;5013609;28;20056;-53
2021/11/15 04:27:23;;;;;;;33.90;20.00;;;;;;;8.01;93.26;101157.34;5022373;28;20049;-54
2021/11/15 04:29:49;;;;;;;32.70;19.80;;;;;;;8.03;93.29;101173.97;4998609;28;20438;-54
2021/11/15 04:32:16;;;;;;;31.25;19.00;;;;;;;8.02;93.57;101164.34;5019161;28;20049;-51
2021/11/15 04:34:42;;;;;;;32.83;18.92;;;;;;;8.01;93.49;101162.63;4998513;28;20060;-53
2021/11/15 04:37:09;;;;;;;30.02;19.13;;;;;;;8.03;93.61;101170.47;5019851;28;20049;-53
2021/11/15 04:39:35;;;;;;;31.85;20.08;;;;;;;8.01;93.36;101169.66;5016736;28;20136;-51
2021/11/15 04:42:02;;;;;;;32.05;19.13;;;;;;;8.03;93.28;101165.19;5019903;28;20048;-52
2021/11/15 04:44:29;;;;;;;29.33;17.92;;;;;;;8.03;92.45;101163.41;5015186;28;20056;-52
2021/11/15 04:46:55;;;;;;;29.58;18.63;;;;;;;7.94;92.19;101149.59;5020010;28;20419;-54
2021/11/15 04:49:22;;;;;;;30.60;18.17;;;;;;;7.97;92.04;101154.81;5016441;28;20049;-52
2021/11/15 04:51:49;;;;;;;26.60;17.13;;;;;;;8.03;92.43;101171.34;5017395;28;20064;-54
2021/11/15 04:54:15;;;;;;;30.95;17.92;;;;;;;8.08;92.21;101172.09;5008024;28;20049;-53
2021/11/15 04:56:43;;;;;;;29.67;17.70;;;;;;;8.07;91.97;101172.13;5014918;28;20049;-54
2021/11/15 04:59:10;;;;;;;28.88;17.50;;;;;;;8.01;92.19;101175.81;5014120;28;20048;-53
2021/11/15 05:01:36;;;;;;;29.13;18.08;;;;;;;7.90;92.33;101148.81;5018774;28;20056;-53
2021/11/15 05:04:04;;;;;;;27.40;17.52;;;;;;;8.03;92.11;101170.47;5010811;28;20053;-52
2021/11/15 05:06:31;;;;;;;30.00;18.08;;;;;;;7.99;92.41;101179.38;5016195;28;20057;-51
2021/11/15 05:08:58;;;;;;;29.55;16.65;;;;;;;7.94;92.49;101174.22;5015533;28;20056;-50
2021/11/15 05:11:25;;;;;;;25.35;15.80;;;;;;;8.02;92.03;101169.63;5014851;28;21013;-53
2021/11/15 05:13:51;;;;;;;29.65;16.80;;;;;;;7.97;91.94;101165.38;5011810;28;20042;-53
2021/11/15 05:16:18;;;;;;;28.63;17.27;;;;;;;7.96;92.41;101161.84;5013977;28;20072;-54
2021/11/15 05:18:44;;;;;;;27.00;17.30;;;;;;;7.94;92.31;101155.75;5019373;28;20049;-52
2021/11/15 05:21:11;;;;;;;29.80;17.35;;;;;;;7.93;92.47;101158.41;5016407;28;20057;-53
2021/11/15 05:23:40;;;;;;;29.27;17.67;;;;;;;7.92;92.71;101156.69;5014698;28;20045;-52
2021/11/15 05:26:07;;;;;;;26.92;16.83;;;;;;;7.94;92.58;101154.88;5015717;28;20057;-53
2021/11/15 05:28:34;;;;;;;27.67;16.63;;;;;;;8.08;91.61;101152.78;5014147;28;20045;-51
2021/11/15 05:31:01;;;;;;;27.05;16.45;;;;;;;8.00;91.79;101141.56;5016069;28;20053;-53
2021/11/15 05:33:27;;;;;;;27.55;16.05;;;;;;;7.96;92.10;101142.53;5014935;28;20091;-54
2021/11/15 05:35:54;;;;;;;25.95;15.57;;;;;;;7.93;92.28;101153.16;5015564;28;20056;-53
2021/11/15 05:38:20;;;;;;;25.52;15.90;;;;;;;7.89;92.84;101147.06;5015337;28;20049;-53
2021/11/15 05:40:47;;;;;;;26.35;15.55;;;;;;;7.91;93.24;101158.44;5013778;28;20053;-54
2021/11/15 05:43:13;;;;;;;27.95;16.55;;;;;;;7.94;93.18;101152.25;5014872;28;20045;-53
2021/11/15 05:45:40;;;;;;;26.67;15.73;;;;;;;7.97;92.91;101160.94;5012686;28;20044;-54
2021/11/15 05:48:06;;;;;;;26.05;16.10;;;;;;;7.94;92.64;101158.38;5016566;28;20063;-54
2021/11/15 05:50:33;;;;;;;28.83;16.50;;;;;;;7.90;93.01;101166.41;5014337;28;20060;-51
2021/11/15 05:53:00;;;;;;;27.65;16.00;;;;;;;7.90;92.93;101164.63;5016519;28;20597;-53
2021/11/15 05:55:27;;;;;;;27.38;15.25;;;;;;;7.91;92.63;101169.00;5012857;28;20108;-53
2021/11/15 05:57:54;;;;;;;26.05;15.55;;;;;;;7.91;92.10;101168.13;5013896;28;20053;-60
2021/11/15 06:00:25;;;;;;;25.88;15.75;;;;;;;7.86;92.10;101168.25;5018918;28;20054;-52
2021/11/15 06:02:53;;;;;;;26.55;15.43;;;;;;;7.90;92.53;101163.75;5017235;28;20041;-54
2021/11/15 06:05:21;;;;;;;25.95;15.73;;;;;;;7.90;92.50;101175.19;5011724;28;20061;-53
2021/11/15 06:07:48;;;;;;;25.20;15.18;;;;;;;7.89;92.06;101173.44;5017389;28;20428;-51
2021/11/15 06:10:15;;;;;;;24.58;15.02;;;;;;;7.85;92.13;101170.94;5018827;28;20141;-53
2021/11/15 06:12:42;;;;;;;23.77;14.48;;;;;;;7.80;92.52;101172.81;5015947;28;20056;-53
2021/11/15 06:15:11;;;;;;;26.25;14.65;;;;;;;7.84;92.27;101177.09;5014362;28;20064;-53
2021/11/15 06:17:41;;;;;;;23.48;14.73;;;;;;;7.90;91.91;101182.22;5018255;28;20057;-52
2021/11/15 06:20:09;;;;;;;23.60;14.32;;;;;;;7.81;91.61;101182.44;5016789;28;22684;-52
2021/11/15 06:22:36;;;;;;;24.77;14.82;;;;;;;7.76;92.48;101179.91;5019239;28;20045;-53
2021/11/15 06:25:05;;;;;;;23.52;14.52;;;;;;;7.82;92.63;101182.41;5016798;28;20056;-53
2021/11/15 06:27:31;;;;;;;26.20;15.60;;;;;;;7.80;91.91;101178.06;5020997;28;20403;-52
2021/11/15 06:29:58;;;;;;;22.38;14.30;;;;;;;7.74;92.31;101186.97;5019696;28;20052;-53
2021/11/15 06:32:24;;;;;;;24.20;14.27;;;;;;;7.74;92.07;101181.72;5016269;28;20060;-52
2021/11/15 06:34:51;;;;;;;23.73;14.40;;;;;;;7.75;92.41;101186.06;5012690;28;20659;-53
2021/11/15 06:37:17;;;;;;;26.33;14.40;;;;;;;7.74;92.49;101189.63;5017412;28;20154;-54
2021/11/15 06:39:44;;;;;;;24.67;14.70;;;;;;;7.77;92.56;101184.28;5020450;28;20049;-55
2021/11/15 06:42:12;;;;;;;23.83;14.25;;;;;;;7.78;92.62;101185.16;5022070;28;20052;-52
2021/11/15 06:44:39;;;;;;;22.50;13.88;;;;;;;7.80;92.02;101200.03;5015130;28;20053;-53
2021/11/15 06:47:07;;;;;;;24.02;14.18;;;;;;;7.77;92.36;101194.81;5016688;28;20049;-52
2021/11/15 06:49:33;;;;;;;24.30;14.60;;;;;;;7.75;92.54;101201.91;5016450;28;20064;-54
2021/11/15 06:52:00;;;;;;;22.05;13.82;;;;;;;7.70;92.47;101206.44;5018059;28;20053;-53
2021/11/15 06:54:27;;;;;;;23.00;13.43;;;;;;;7.78;91.54;101204.47;5016572;28;20573;-51
2021/11/15 06:56:53;;;;;;;23.85;14.32;;;;;;;7.82;91.33;101203.50;5018587;28;20045;-52
2021/11/15 06:59:20;;;;;;;20.63;13.20;;;;;;;7.80;91.63;101210.59;5013642;28;20049;-51
2021/11/15 07:01:46;;;;;;;22.92;13.52;;;;;;;7.79;91.41;101207.97;5019492;28;20414;-55
2021/11/15 07:04:13;;;;;;;21.08;13.18;;;;;;;7.77;91.60;101213.28;5013013;28;20053;-54
2021/11/15 07:06:42;;;;;;;19.75;13.18;;;;;;;7.77;91.63;101218.56;5015452;28;20061;-55
2021/11/15 07:09:09;;;;;;;20.27;12.90;;;;;;;7.76;91.26;101216.81;5015351;28;20046;-51
2021/11/15 07:11:37;;;;;;;24.08;13.95;;;;;;;7.70;91.64;101222.25;5022066;28;20501;-52
2021/11/15 07:14:05;;;;;;;23.35;13.68;;;;;;;7.71;92.27;101223.97;5013763;28;20046;-55
2021/11/15 07:16:32;;;;;;;21.05;13.05;;;;;;;7.81;90.92;101227.28;5014997;28;20068;-53
2021/11/15 07:18:58;;;;;;;21.60;13.02;;;;;;;7.75;91.45;101228.25;5017358;28;20072;-53
2021/11/15 07:21:25;;;;;;;20.70;12.80;;;;;;;7.77;91.72;101221.19;5020697;28;20139;-53
2021/11/15 07:23:52;;;;;;;20.60;13.50;;;;;;;7.74;91.76;101231.78;5021923;28;20636;-54
2021/11/15 07:26:19;;;;;;;22.63;13.07;;;;;;;7.78;91.08;101229.97;5013833;28;20041;-52
2021/11/15 07:28:46;;;;;;;21.10;13.00;;;;;;;7.80;91.05;101231.66;5016871;28;20045;-53
2021/11/15 07:31:13;;;;;;;21.70;13.25;;;;;;;7.81;90.81;101233.41;5016157;28;20052;-53
2021/11/15 07:33:40;;;;;;;19.95;12.68;;;;;;;7.84;90.24;101237.75;5021475;28;20099;-57
2021/11/15 07:36:07;;;;;;;20.27;12.38;;;;;;;7.76;90.82;101240.53;5013823;28;20070;-52
2021/11/15 07:38:34;;;;;;;20.25;12.88;;;;;;;7.75;89.81;101244.06;5019512;28;20056;-53
2021/11/15 07:41:00;;;;;;;23.55;12.68;;;;;;;7.72;90.22;101238.88;5017716;28;20050;-53
2021/11/15 07:43:27;;;;;;;22.27;13.48;;;;;;;7.71;90.48;101242.44;5017534;28;20055;-52
2021/11/15 07:45:53;;;;;;;19.15;11.95;;;;;;;7.74;90.03;101242.34;5011089;28;20052;-53
2021/11/15 07:48:20;;;;;;;17.45;11.55;;;;;;;7.66;90.11;101218.81;5019609;28;20102;-54
2021/11/15 07:50:47;;;;;;;20.67;12.07;;;;;;;7.79;90.39;101240.47;5017734;28;20053;-51
2021/11/15 07:53:14;;;;;;;21.00;12.02;;;;;;;7.85;89.55;101243.00;5019447;28;20502;-52
2021/11/15 07:55:42;;;;;;;19.15;11.77;;;;;;;7.79;89.00;101235.22;5010376;28;20056;-54
2021/11/15 07:58:11;;;;;;;21.33;12.25;;;;;;;7.73;89.62;101230.06;5015997;28;20052;-53
2021/11/15 08:00:38;;;;;;;19.75;12.27;;;;;;;7.80;90.61;101236.94;5014219;28;20098;-53
2021/11/15 08:03:06;;;;;;;20.42;11.50;;;;;;;7.86;89.35;101238.59;5026004;28;20111;-53
2021/11/15 08:05:34;;;;;;;21.63;12.13;;;;;;;7.78;89.56;101238.75;5024115;28;20049;-54
2021/11/15 08:08:01;;;;;;;17.85;11.48;;;;;;;7.82;88.84;101231.66;5022513;28;20057;-54
2021/11/15 08:10:28;;;;;;;19.10;11.65;;;;;;;7.81;89.06;101229.91;5025082;28;20045;-54
2021/11/15 08:12:57;;;;;;;20.45;12.10;;;;;;;7.81;89.44;101243.97;5025412;28;20491;-54
2021/11/15 08:15:26;;;;;;;21.48;11.38;;;;;;;7.83;90.14;101236.88;5025985;28;20059;-52
2021/11/15 08:17:56;;;;;;;17.45;10.98;;;;;;;7.89;89.00;101236.72;5024449;28;20056;-52
2021/11/15 08:20:36;;;;;;;16.90;11.32;;;;;;;7.90;89.30;101234.97;5022894;28;20045;-53
2021/11/15 08:23:09;;;;;;;16.73;11.10;;;;;;;7.91;88.67;101240.19;5026904;28;20172;-52
2021/11/15 08:25:56;;;;;;;17.60;11.48;;;;;;;7.91;88.33;101241.97;5015152;28;20084;-52
2021/11/15 08:28:27;;;;;;;17.42;11.27;;;;;;;7.86;88.15;101228.91;5028344;28;20052;-54
2021/11/15 08:30:55;;;;;;;17.13;11.00;;;;;;;7.86;88.08;101226.28;5024909;28;20049;-52
2021/11/15 08:33:22;;;;;;;17.00;11.07;;;;;;;7.84;88.50;101228.06;5011169;28;20053;-53
2021/11/15 08:35:49;;;;;;;17.35;10.82;;;;;;;7.84;88.32;101228.06;5018185;28;20574;-52
2021/11/15 08:38:15;;;;;;;16.52;11.15;;;;;;;7.85;88.34;101219.25;5022935;28;20068;-52
2021/11/15 08:40:50;;;;;;;19.38;10.27;;;;;;;7.89;88.20;101222.69;5028610;28;20128;-52
2021/11/15 08:43:22;;;;;;;17.27;9.95;;;;;;;7.86;87.61;101221.00;5019113;28;20048;-53
2021/11/15 08:45:49;;;;;;;16.20;11.10;;;;;;;7.88;87.87;101216.53;5016381;28;20049;-53
2021/11/15 08:48:16;;;;;;;17.50;10.52;;;;;;;7.82;88.01;101213.19;5020194;28;20052;-52
2021/11/15 08:50:43;;;;;;;17.30;10.80;;;;;;;7.82;88.46;101219.31;5019269;28;20048;-52
2021/11/15 08:53:09;;;;;;;16.30;10.13;;;;;;;7.78;87.69;101212.38;5020273;28;20474;-53
2021/11/15 08:55:36;;;;;;;16.40;10.05;;;;;;;7.77;88.04;101220.31;5019254;28;20049;-52
2021/11/15 08:58:03;;;;;;;20.40;11.25;;;;;;;7.80;87.61;101217.63;5019088;28;20052;-54
2021/11/15 09:00:30;;;;;;;16.55;10.55;;;;;;;7.79;87.61;101216.75;5015070;28;20057;-53
2021/11/15 09:02:57;;;;;;;15.48;10.30;;;;;;;7.80;87.51;101226.41;5024008;28;20127;-51
2021/11/15 09:05:24;;;;;;;14.40;9.45;;;;;;;7.76;87.64;101227.38;5018385;28;22087;-50
2021/11/15 09:07:51;;;;;;;18.05;10.63;;;;;;;7.76;87.81;101230.00;5021794;28;20065;-53
2021/11/15 09:10:18;;;;;;;15.18;9.68;;;;;;;7.76;87.57;101230.00;5027440;28;20522;-52
2021/11/15 09:12:46;;;;;;;15.57;9.48;;;;;;;7.78;87.30;101220.28;5025378;28;20045;-52
2021/11/15 09:15:15;;;;;;;15.32;9.73;;;;;;;7.78;87.22;101225.56;5016714;28;20502;-52
2021/11/15 09:17:43;;;;;;;18.08;10.38;;;;;;;7.76;87.11;101224.72;5027291;28;20049;-52
2021/11/15 09:20:11;;;;;;;15.90;9.95;;;;;;;7.76;87.25;101227.38;5021184;28;20324;-54
2021/11/15 09:22:40;;;;;;;15.73;9.80;;;;;;;7.75;87.28;101230.91;5034232;28;20045;-52
2021/11/15 09:25:09;;;;;;;15.07;10.07;;;;;;;7.72;87.00;101229.19;5021364;28;20269;-52
2021/11/15 09:27:39;;;;;;;15.13;9.75;;;;;;;7.75;87.06;101234.41;5019574;28;20061;-51
2021/11/15 09:30:09;;;;;;;14.85;9.73;;;;;;;7.73;87.41;101237.97;5020346;28;20048;-52
2021/11/15 09:32:36;;;;;;;14.93;9.13;;;;;;;7.74;87.21;101226.53;5023835;28;20459;-52
2021/11/15 09:35:03;;;;;;;15.80;9.43;;;;;;;7.77;87.29;101230.88;5021812;28;20045;-53
2021/11/15 09:37:30;;;;;;;15.85;9.23;;;;;;;7.79;87.10;101235.22;5019289;28;20041;-53
2021/11/15 09:39:57;;;;;;;14.32;9.35;;;;;;;7.73;87.19;101235.34;5020700;28;20819;-53
2021/11/15 09:42:23;;;;;;;15.40;8.98;;;;;;;7.75;87.44;101239.69;5026167;28;20377;-54
2021/11/15 09:44:50;;;;;;;16.50;10.02;;;;;;;7.75;87.70;101238.81;5022246;28;20049;-51
2021/11/15 09:47:17;;;;;;;14.02;9.07;;;;;;;7.79;87.30;101244.88;5025987;28;20061;-52
2021/11/15 09:49:44;;;;;;;14.40;8.65;;;;;;;7.88;86.60;101245.53;5033862;28;20063;-51
2021/11/15 09:52:11;;;;;;;13.13;8.57;;;;;;;7.83;86.68;101242.16;5027407;28;20049;-52
2021/11/15 09:54:38;;;;;;;13.90;8.88;;;;;;;7.81;86.40;101229.91;5029307;28;20415;-53
2021/11/15 09:57:19;;;;;;;15.73;9.18;;;;;;;7.79;86.42;101232.56;5020366;28;20057;-53
2021/11/15 09:59:46;;;;;;;12.63;8.40;;;;;;;7.81;86.89;101235.19;5020739;28;20053;-53
2021/11/15 10:02:13;;;;;;;12.43;8.35;;;;;;;7.79;86.10;101235.22;5022187;28;20143;-51
2021/11/15 10:04:40;;;;;;;15.35;8.90;;;;;;;7.83;86.36;101243.94;5020147;28;20465;-53
2021/11/15 10:07:07;;;;;;;15.50;8.82;;;;;;;7.87;85.98;101229.78;5018184;28;20066;-52
2021/11/15 10:09:37;;;;;;;14.93;8.85;;;;;;;7.84;86.29;101230.72;5025381;28;20045;-52
2021/11/15 10:12:10;;;;;;;13.13;8.15;;;;;;;7.86;85.93;101220.13;5029763;28;20087;-52
2021/11/15 10:15:05;;;;;;;15.55;7.78;;;;;;;7.92;85.86;101219.97;5024479;28;20048;-53
2021/11/15 10:17:43;;;;;;;12.50;8.25;;;;;;;7.90;85.54;101217.38;5021461;28;20049;-51
2021/11/15 10:20:10;;;;;;;13.10;8.07;;;;;;;7.90;85.70;101221.78;5030949;28;20052;-53
2021/11/15 10:22:39;;;;;;;12.40;7.88;;;;;;;7.93;85.21;101225.22;5031355;28;20041;-51
2021/11/15 10:25:08;;;;;;;13.38;8.18;;;;;;;7.97;85.02;101221.63;5006819;28;20048;-53
2021/11/15 10:27:36;;;;;;;14.50;7.72;;;;;;;7.95;85.09;101220.78;5003089;28;20052;-51
2021/11/15 10:30:15;;;;;;;11.73;7.97;;;;;;;7.97;85.32;101220.75;5016334;28;20484;-52
2021/11/15 10:32:50;;;;;;;9.90;6.75;;;;;;;8.02;84.23;101222.38;5020669;28;20048;-54
2021/11/15 10:35:17;;;;;;;11.00;7.53;;;;;;;8.01;84.42;101225.94;5020697;28;20045;-54
2021/11/15 10:37:44;;;;;;;13.77;7.68;;;;;;;8.01;84.43;101227.69;5024229;28;20041;-51
2021/11/15 10:40:16;;;;;;;12.23;7.47;;;;;;;8.03;84.63;101234.63;5027657;28;20053;-52
2021/11/15 10:42:50;;;;;;;12.00;7.47;;;;;;;8.09;84.14;101226.59;5020502;28;20056;-52
2021/11/15 10:45:19;;;;;;;14.80;8.30;;;;;;;8.04;84.42;101236.38;5015429;28;20045;-52
2021/11/15 10:48:06;;;;;;;13.07;7.18;;;;;;;7.98;84.49;101227.75;5016962;28;20061;-50
2021/11/15 10:50:55;;;;;;;10.68;7.00;;;;;;;7.97;85.03;101218.09;5024415;28;20045;-53
2021/11/15 10:53:43;;;;;;;11.38;6.63;;;;;;;7.99;85.26;101213.66;5024473;28;20053;-53
2021/11/15 10:56:16;;;;;;;12.40;7.50;;;;;;;8.02;84.59;101209.19;5017258;28;20049;-52
2021/11/15 10:58:46;;;;;;;12.77;6.88;;;;;;;8.07;84.34;101206.44;5028433;28;20047;-52
2021/11/15 11:01:13;;;;;;;10.88;6.47;;;;;;;8.09;84.14;101197.56;5028850;28;20056;-53
2021/11/15 11:03:42;;;;;;;10.60;6.30;;;;;;;8.16;83.88;101195.69;5017957;28;20045;-53
2021/11/15 11:06:18;;;;;;;14.18;8.55;;;;;;;8.15;83.84;101193.06;5019012;28;20068;-52
2021/11/15 11:08:49;;;;;;;10.18;6.97;;;;;;;8.12;83.79;101190.50;5022719;28;20469;-52
2021/11/15 11:11:29;;;;;;;10.68;6.50;;;;;;;8.08;84.08;101187.94;5030521;28;20080;-53
2021/11/15 11:14:03;;;;;;;11.52;6.55;;;;;;;8.09;84.00;101192.31;5028002;28;20068;-53
2021/11/15 11:16:47;;;;;;;11.25;6.80;;;;;;;8.08;84.23;101198.47;5018302;28;20045;-52
2021/11/15 11:19:46;;;;;;;10.75;6.95;;;;;;;8.08;84.52;101197.59;5032293;28;20140;-52
2021/11/15 11:24:59;;;;;;;10.15;6.57;;;;;;;8.08;84.37;101201.13;5020370;28;20052;-51
2021/11/15 11:27:27;;;;;;;10.05;6.57;;;;;;;8.02;84.86;101203.91;5014355;28;20600;-53